Time;durP1;ratioP1;P1;durP2;ratioP2;P2;SDS_P1;SDS_P2;PMS_P1;PMS_P2;Temp;Humidity;BMP_temperature;BMP_pressure;BME280_temperature;BME280_humidity;BME280_pressure;Samples;Min_cycle;Max_cycle;Signal;HPM_P1;HPM_P2
2023/01/11 00:00:37;;;;;;;;;;;;;;;4.38;88.07;101187.59;105530;1287;60052;-81
2023/01/11 00:03:03;;;;;;;;;;;;;;;4.36;88.01;101188.41;105514;1287;74438;-81
2023/01/11 00:05:29;;;;;;;;;;;;;;;4.33;87.99;101185.64;105437;1288;61324;-81
2023/01/11 00:07:54;;;;;;;;;;;;;;;4.32;87.98;101183.89;105471;1287;59231;-81
2023/01/11 00:10:21;;;;;;;;;;;;;;;4.29;87.97;101186.25;105512;1288;59932;-81
2023/01/11 00:12:46;;;;;;;;;;;;;;;4.27;87.94;101180.91;105433;1288;59452;-81
2023/01/11 00:15:12;;;;;;;;;;;;;;;4.24;87.93;101178.98;105467;1288;61119;-81
2023/01/11 00:17:38;;;;;;;;;;;;;;;4.23;87.91;101176.05;105453;1286;61264;-81
2023/01/11 00:20:05;;;;;;;;;;;;;;;4.19;87.99;101174.79;105444;1288;60988;-81
2023/01/11 00:22:30;;;;;;;;;;;;;;;4.17;88.00;101178.85;105428;1291;61276;-80
2023/01/11 00:24:55;;;;;;;;;;;;;;;4.15;87.98;101181.73;105941;1286;59756;-81
2023/01/11 00:27:21;;;;;;;;;;;;;;;4.13;87.93;101183.39;106388;1286;58881;-81
2023/01/11 00:29:46;;;;;;;;;;;;;;;4.11;87.96;101186.59;106386;1287;58939;-81
2023/01/11 00:32:12;;;;;;;;;;;;;;;4.09;87.94;101182.30;106458;1288;59613;-80
2023/01/11 00:34:37;;;;;;;;;;;;;;;4.08;87.90;101175.80;106288;1288;59176;-80
2023/01/11 00:37:03;;;;;;;;;;;;;;;4.06;87.92;101175.75;106287;1286;59402;-80
2023/01/11 00:39:28;;;;;;;;;;;;;;;4.03;87.87;101177.73;106276;1288;59166;-80
2023/01/11 00:50:05;;;;;;;;;;;;;;;3.91;87.79;101180.23;106369;1291;67142;-80
2023/01/11 00:52:31;;;;;;;;;;;;;;;3.88;87.71;101181.52;106375;1286;58472;-80
2023/01/11 00:54:56;;;;;;;;;;;;;;;3.85;87.73;101183.00;106387;1286;59400;-80
2023/01/11 00:57:22;;;;;;;;;;;;;;;3.82;87.74;101180.73;106316;1286;59022;-80
2023/01/11 00:59:47;;;;;;;;;;;;;;;3.80;87.76;101183.08;106346;1288;59469;-80
2023/01/11 01:02:13;;;;;;;;;;;;;;;3.79;87.75;101173.52;106457;1287;73182;-80
2023/01/11 01:04:38;;;;;;;;;;;;;;;3.78;87.80;101173.33;106415;1291;59067;-80
2023/01/11 01:07:04;;;;;;;;;;;;;;;3.78;87.82;101175.02;106517;1286;59295;-80
2023/01/11 01:09:30;;;;;;;;;;;;;;;3.77;87.77;101172.94;106364;1288;59145;-81
2023/01/11 01:11:56;;;;;;;;;;;;;;;3.75;87.83;101170.36;106422;1288;59060;-81
2023/01/11 01:14:28;;;;;;;;;;;;;;;3.74;87.84;101179.71;106346;1288;59045;-81
2023/01/11 01:16:56;;;;;;;;;;;;;;;3.73;87.79;101181.56;106364;1286;60938;-81
2023/01/11 01:19:22;;;;;;;;;;;;;;;3.70;87.69;101186.61;106395;1286;74326;-80
2023/01/11 01:21:50;;;;;;;;;;;;;;;3.67;87.69;101183.14;106201;1286;59071;-81
2023/01/11 01:24:16;;;;;;;;;;;;;;;3.65;87.74;101181.22;105439;1288;73383;-80
2023/01/11 01:26:42;;;;;;;;;;;;;;;3.63;87.79;101183.61;105375;1286;61234;-80
2023/01/11 01:29:07;;;;;;;;;;;;;;;3.61;87.79;101178.27;105386;1291;61451;-80
2023/01/11 01:31:33;;;;;;;;;;;;;;;3.58;87.74;101176.50;105377;1286;61269;-80
2023/01/11 01:33:58;;;;;;;;;;;;;;;3.55;87.78;101173.87;105412;1287;59116;-80
2023/01/11 01:36:24;;;;;;;;;;;;;;;3.51;87.73;101174.64;105406;1287;61243;-80
2023/01/11 01:38:49;;;;;;;;;;;;;;;3.47;87.75;101170.11;106330;1286;59078;-80
2023/01/11 01:41:15;;;;;;;;;;;;;;;3.43;87.65;101169.02;106493;1286;58547;-80
2023/01/11 01:43:44;;;;;;;;;;;;;;;3.40;87.74;101168.77;106405;1287;58866;-80
2023/01/11 01:46:09;;;;;;;;;;;;;;;3.38;87.69;101167.20;106135;1287;58827;-80
2023/01/11 01:48:35;;;;;;;;;;;;;;;3.36;87.72;101162.38;105325;1288;61392;-80
2023/01/11 01:51:01;;;;;;;;;;;;;;;3.33;87.69;101157.39;105373;1286;61253;-80
2023/01/11 01:53:39;;;;;;;;;;;;;;;3.30;87.74;101149.65;105431;1286;59869;-80
2023/01/11 01:56:07;;;;;;;;;;;;;;;3.29;87.74;101152.00;105508;1288;69583;-80
2023/01/11 01:58:35;;;;;;;;;;;;;;;3.27;87.72;101143.78;105322;1289;73790;-80
2023/01/11 02:01:45;;;;;;;;;;;;;;;3.24;87.73;101144.41;105359;1286;61128;-81
2023/01/11 02:03:47;;;;;;;;;;;;;;;3.22;87.70;101141.80;105483;1287;59400;-80
2023/01/11 02:06:12;;;;;;;;;;;;;;;3.21;87.78;101133.59;105359;1286;61301;-80
2023/01/11 02:08:40;;;;;;;;;;;;;;;3.19;87.75;101130.83;105332;1291;61314;-80
2023/01/11 02:11:28;;;;;;;;;;;;;;;3.17;87.66;101128.05;105355;1291;61269;-80
2023/01/11 02:13:52;;;;;;;;;;;;;;;3.14;87.76;101122.54;105352;1287;59767;-80
2023/01/11 02:16:18;;;;;;;;;;;;;;;3.12;87.69;101118.77;105345;1286;61221;-80
2023/01/11 02:18:44;;;;;;;;;;;;;;;3.10;87.70;101120.94;106442;1286;59123;-80
2023/01/11 02:21:16;;;;;;;;;;;;;;;3.08;87.72;101119.87;106560;1286;58923;-81
2023/01/11 02:23:57;;;;;;;;;;;;;;;3.06;87.67;101117.27;105432;1286;73650;-80
2023/01/11 02:26:49;;;;;;;;;;;;;;;3.04;87.64;101114.84;105435;1286;62024;-80
2023/01/11 02:29:25;;;;;;;;;;;;;;;3.03;87.70;101113.29;104967;1291;61328;-80
2023/01/11 02:31:59;;;;;;;;;;;;;;;3.01;87.61;101111.20;104978;1292;75282;-80
2023/01/11 02:34:54;;;;;;;;;;;;;;;2.97;87.63;101104.48;104961;1292;69394;-80
2023/01/11 02:37:38;;;;;;;;;;;;;;;2.94;87.58;101101.68;104530;1294;72690;-80
2023/01/11 02:40:08;;;;;;;;;;;;;;;2.93;87.65;101102.16;104914;1294;61564;-79
2023/01/11 02:46:22;;;;;;;;;;;;;;;2.88;87.65;101095.59;104230;1300;73283;-79
2023/01/11 02:49:06;;;;;;;;;;;;;;;2.86;87.69;101087.69;103490;1306;226791;-79
2023/01/11 02:51:36;;;;;;;;;;;;;;;2.83;87.62;101090.86;103638;1305;72597;-79
2023/01/11 02:54:05;;;;;;;;;;;;;;;2.80;87.56;101087.75;103666;1306;61265;-79
2023/01/11 02:56:33;;;;;;;;;;;;;;;2.78;87.59;101086.50;103620;1306;61287;-80
2023/01/11 02:58:59;;;;;;;;;;;;;;;2.76;87.53;101086.45;103877;1305;74417;-81
2023/01/11 03:01:26;;;;;;;;;;;;;;;2.73;87.57;101085.02;103609;1306;67499;-81
2023/01/11 03:03:52;;;;;;;;;;;;;;;2.70;87.57;101080.85;103942;1306;59804;-76
2023/01/11 03:06:22;;;;;;;;;;;;;;;2.69;87.62;101077.25;103832;1302;61661;-80
2023/01/11 03:09:10;;;;;;;;;;;;;;;2.67;87.59;101073.46;104102;1303;60409;-80
2023/01/11 03:14:57;;;;;;;;;;;;;;;2.61;87.50;101064.66;103289;1316;68781;-80
2023/01/11 03:17:45;;;;;;;;;;;;;;;2.59;87.55;101063.78;103148;1312;72525;-80
2023/01/11 03:20:25;;;;;;;;;;;;;;;2.57;87.51;101056.23;103516;1306;61458;-80
2023/01/11 03:23:14;;;;;;;;;;;;;;;2.56;87.63;101051.95;103733;1311;61311;-80
2023/01/11 03:25:54;;;;;;;;;;;;;;;2.55;87.54;101046.84;103564;1307;73314;-80
2023/01/11 03:28:33;;;;;;;;;;;;;;;2.53;87.54;101039.14;104310;1303;68937;-80
2023/01/11 03:31:19;;;;;;;;;;;;;;;2.52;87.53;101034.67;103855;1306;181469;-80
2023/01/11 03:34:11;;;;;;;;;;;;;;;2.49;87.48;101035.64;104774;1307;59022;-79
2023/01/11 03:36:41;;;;;;;;;;;;;;;2.46;87.43;101033.01;103690;1312;60103;-79
2023/01/11 03:39:27;;;;;;;;;;;;;;;2.44;87.35;101033.98;103073;1313;74560;-80
2023/01/11 03:41:56;;;;;;;;;;;;;;;2.37;87.35;101028.88;102955;1313;69607;-80
2023/01/11 03:44:22;;;;;;;;;;;;;;;2.31;87.30;101029.09;103135;1312;73376;-80
2023/01/11 03:46:51;;;;;;;;;;;;;;;2.30;87.37;101027.17;103024;1315;61393;-80
2023/01/11 03:49:22;;;;;;;;;;;;;;;2.28;87.42;101028.16;103190;1310;61176;-80
2023/01/11 03:51:49;;;;;;;;;;;;;;;2.27;87.44;101022.35;103660;1306;74290;-80
2023/01/11 03:54:18;;;;;;;;;;;;;;;2.27;87.44;101017.06;103800;1306;68474;-80
2023/01/11 03:57:00;;;;;;;;;;;;;;;2.27;87.49;101011.80;103798;1306;70937;-80
2023/01/11 03:59:26;;;;;;;;;;;;;;;2.26;87.48;101010.09;103774;1305;61271;-80
2023/01/11 04:01:55;;;;;;;;;;;;;;;2.26;87.45;101005.48;103821;1306;61394;-80
2023/01/11 04:04:21;;;;;;;;;;;;;;;2.26;87.49;100998.00;103981;1301;73557;-79
2023/01/11 04:06:47;;;;;;;;;;;;;;;2.26;87.45;100999.53;104355;1302;59525;-79
2023/01/11 04:09:13;;;;;;;;;;;;;;;2.25;87.42;100995.77;104366;1302;59765;-80
2023/01/11 04:11:38;;;;;;;;;;;;;;;2.26;87.46;100995.95;104420;1294;60519;-80
2023/01/11 04:14:04;;;;;;;;;;;;;;;2.26;87.50;100989.15;104850;1288;61228;-80
2023/01/11 04:16:30;;;;;;;;;;;;;;;2.26;87.46;100984.55;105122;1288;61151;-80
2023/01/11 04:18:55;;;;;;;;;;;;;;;2.24;87.42;100979.41;105609;1289;61279;-80
2023/01/11 04:21:21;;;;;;;;;;;;;;;2.23;87.37;100977.17;105282;1288;61488;-80
2023/01/11 04:23:47;;;;;;;;;;;;;;;2.21;87.36;100976.11;105102;1288;62465;-80
2023/01/11 04:26:12;;;;;;;;;;;;;;;2.19;87.39;100969.42;105091;1288;61288;-80
2023/01/11 04:28:38;;;;;;;;;;;;;;;2.18;87.33;100965.33;105233;1288;59165;-80
2023/01/11 04:31:03;;;;;;;;;;;;;;;2.17;87.38;100957.80;105134;1288;61233;-80
2023/01/11 04:33:29;;;;;;;;;;;;;;;2.15;87.36;100952.83;105082;1293;61260;-80
2023/01/11 04:35:54;;;;;;;;;;;;;;;2.13;87.32;100949.05;105116;1288;61352;-80
2023/01/11 04:38:23;;;;;;;;;;;;;;;2.11;87.31;100943.39;105328;1288;61299;-80
2023/01/11 04:42:16;;;;;;;;;;;;;;;2.10;87.34;100944.73;106248;1288;72409;-80
2023/01/11 04:43:34;;;;;;;;;;;;;;;2.09;87.38;100938.59;105241;1288;61580;-80
2023/01/11 04:46:00;;;;;;;;;;;;;;;2.09;87.34;100933.98;105334;1289;61262;-79
2023/01/11 04:48:26;;;;;;;;;;;;;;;2.09;87.35;100936.70;105216;1287;61218;-79
2023/01/11 04:50:51;;;;;;;;;;;;;;;2.09;87.39;100936.88;105283;1288;61246;-80
2023/01/11 04:53:17;;;;;;;;;;;;;;;2.08;87.35;100936.86;105240;1288;61084;-80
2023/01/11 04:55:42;;;;;;;;;;;;;;;2.07;87.38;100931.92;105094;1286;61526;-76
2023/01/11 04:58:07;;;;;;;;;;;;;;;2.08;87.34;100931.42;105293;1288;61420;-76
2023/01/11 05:00:33;;;;;;;;;;;;;;;2.07;87.31;100920.19;105144;1286;61295;-77
2023/01/11 05:02:58;;;;;;;;;;;;;;;2.05;87.31;100914.70;105264;1288;61215;-76
2023/01/11 05:05:24;;;;;;;;;;;;;;;2.04;87.26;100909.08;105306;1289;61377;-76
2023/01/11 05:07:49;;;;;;;;;;;;;;;2.04;87.29;100904.81;105210;1288;61269;-76
2023/01/11 05:10:15;;;;;;;;;;;;;;;2.04;87.29;100902.09;106422;1286;59518;-76
2023/01/11 05:12:40;;;;;;;;;;;;;;;2.04;87.35;100906.52;105904;1286;59331;-76
2023/01/11 05:15:07;;;;;;;;;;;;;;;2.04;87.38;100904.48;105256;1289;59265;-77
2023/01/11 05:17:32;;;;;;;;;;;;;;;2.05;87.27;100899.39;105232;1286;61279;-77
2023/01/11 05:19:57;;;;;;;;;;;;;;;2.06;87.34;100896.01;105310;1287;59472;-76
2023/01/11 05:22:23;;;;;;;;;;;;;;;2.06;87.31;100903.35;105331;1288;61233;-76
2023/01/11 05:24:48;;;;;;;;;;;;;;;2.08;87.37;100906.09;105291;1291;61230;-76
2023/01/11 05:27:14;;;;;;;;;;;;;;;2.09;87.31;100900.99;105215;1287;61223;-77
2023/01/11 05:29:39;;;;;;;;;;;;;;;2.11;87.32;100898.98;105327;1286;61148;-77
2023/01/11 05:32:05;;;;;;;;;;;;;;;2.12;87.31;100900.05;105274;1288;73592;-77
2023/01/11 05:34:30;;;;;;;;;;;;;;;2.12;87.28;100905.99;105291;1289;61245;-77
2023/01/11 05:36:55;;;;;;;;;;;;;;;2.13;87.30;100904.66;105203;1288;61295;-77
2023/01/11 05:39:22;;;;;;;;;;;;;;;2.14;87.31;100905.88;105266;1289;61257;-77
2023/01/11 05:41:48;;;;;;;;;;;;;;;2.16;87.35;100900.14;105194;1288;59433;-77
2023/01/11 05:46:58;;;;;;;;;;;;;;;2.19;87.33;100901.40;105210;1286;61062;-81
2023/01/11 05:49:23;;;;;;;;;;;;;;;2.21;87.27;100902.63;105857;1287;60031;-80
2023/01/11 05:51:49;;;;;;;;;;;;;;;2.22;87.27;100899.25;105249;1288;60786;-80
2023/01/11 05:54:15;;;;;;;;;;;;;;;2.22;87.26;100895.34;105322;1286;59697;-81
2023/01/11 05:56:41;;;;;;;;;;;;;;;2.23;87.25;100897.92;105230;1288;61413;-80
2023/01/11 05:59:07;;;;;;;;;;;;;;;2.24;87.28;100896.41;105472;1286;61009;-81
2023/01/11 06:01:33;;;;;;;;;;;;;;;2.25;87.22;100896.44;105497;1286;59371;-80
2023/01/11 06:03:59;;;;;;;;;;;;;;;2.27;87.23;100896.98;105538;1286;61222;-80
2023/01/11 06:06:24;;;;;;;;;;;;;;;2.27;87.22;100895.45;105440;1287;61195;-80
2023/01/11 06:08:50;;;;;;;;;;;;;;;2.29;87.25;100891.59;105529;1288;61185;-80
2023/01/11 06:11:16;;;;;;;;;;;;;;;2.30;87.23;100881.07;105557;1288;61376;-80
2023/01/11 06:13:42;;;;;;;;;;;;;;;2.31;87.19;100879.05;105589;1288;59781;-81
2023/01/11 06:16:18;;;;;;;;;;;;;;;2.32;87.20;100877.89;105654;1287;61284;-80
2023/01/11 06:18:45;;;;;;;;;;;;;;;2.35;87.23;100869.77;105507;1288;73555;-81
2023/01/11 06:21:13;;;;;;;;;;;;;;;2.37;87.17;100866.05;105523;1286;61212;-80
2023/01/11 06:23:40;;;;;;;;;;;;;;;2.38;87.16;100865.09;105544;1287;61246;-81
2023/01/11 06:26:07;;;;;;;;;;;;;;;2.40;87.13;100867.83;105453;1289;61151;-82
2023/01/11 06:28:33;;;;;;;;;;;;;;;2.41;87.09;100867.35;105483;1286;68711;-81
2023/01/11 06:30:59;;;;;;;;;;;;;;;2.42;87.12;100867.72;105527;1288;61279;-81
2023/01/11 06:33:26;;;;;;;;;;;;;;;2.44;87.12;100868.79;105478;1288;61386;-81
2023/01/11 06:35:52;;;;;;;;;;;;;;;2.46;87.05;100865.41;106294;1286;59637;-76
2023/01/11 06:38:20;;;;;;;;;;;;;;;2.48;87.08;100864.77;105332;1287;60086;-80
2023/01/11 06:40:53;;;;;;;;;;;;;;;2.50;87.06;100858.69;106073;1288;69474;-80
2023/01/11 06:43:19;;;;;;;;;;;;;;;2.52;87.11;100856.52;105149;1288;72311;-80
2023/01/11 06:45:44;;;;;;;;;;;;;;;2.54;87.02;100853.33;106396;1287;58950;-80
2023/01/11 06:48:10;;;;;;;;;;;;;;;2.56;87.05;100851.83;106579;1287;58379;-81
2023/01/11 06:50:35;;;;;;;;;;;;;;;2.58;87.02;100848.83;105851;1291;60290;-79
2023/01/11 06:53:01;;;;;;;;;;;;;;;2.60;87.01;100849.36;105252;1291;61283;-79
2023/01/11 06:55:27;;;;;;;;;;;;;;;2.61;86.91;100845.96;105132;1288;61307;-80
2023/01/11 06:57:52;;;;;;;;;;;;;;;2.62;86.96;100840.55;105250;1286;61614;-80
2023/01/11 07:00:18;;;;;;;;;;;;;;;2.63;86.90;100837.15;105229;1286;61315;-80
2023/01/11 07:02:44;;;;;;;;;;;;;;;2.63;86.93;100838.85;105105;1288;59559;-80
2023/01/11 07:05:10;;;;;;;;;;;;;;;2.63;86.88;100838.01;105032;1288;59353;-79
2023/01/11 07:07:36;;;;;;;;;;;;;;;2.64;86.87;100839.71;105599;1288;61270;-80
2023/01/11 07:10:02;;;;;;;;;;;;;;;2.65;86.92;100835.48;105357;1287;59526;-77
2023/01/11 07:12:27;;;;;;;;;;;;;;;2.66;86.92;100833.47;105241;1286;61288;-79
2023/01/11 07:14:52;;;;;;;;;;;;;;;2.67;86.98;100833.98;105240;1288;61253;-76
2023/01/11 07:17:18;;;;;;;;;;;;;;;2.67;86.84;100830.08;105096;1288;61237;-76
2023/01/11 07:19:43;;;;;;;;;;;;;;;2.68;86.83;100838.60;105134;1288;61272;-76
2023/01/11 07:22:09;;;;;;;;;;;;;;;2.69;86.85;100835.39;105045;1286;61304;-76
2023/01/11 07:24:35;;;;;;;;;;;;;;;2.71;86.88;100832.88;105217;1291;61266;-79
2023/01/11 07:27:01;;;;;;;;;;;;;;;2.72;86.81;100829.66;104779;1290;61143;-79
2023/01/11 07:29:27;;;;;;;;;;;;;;;2.72;86.83;100829.33;104909;1289;61858;-79
2023/01/11 07:31:53;;;;;;;;;;;;;;;2.74;86.86;100836.86;104843;1289;59814;-78
2023/01/11 07:34:18;;;;;;;;;;;;;;;2.77;86.88;100837.92;104881;1291;60004;-79
2023/01/11 07:36:44;;;;;;;;;;;;;;;2.79;86.93;100840.70;104864;1291;60431;-78
2023/01/11 07:39:09;;;;;;;;;;;;;;;2.83;86.87;100837.89;104890;1292;61119;-78
2023/01/11 07:44:19;;;;;;;;;;;;;;;2.96;86.90;100830.48;104893;1290;67145;-78
2023/01/11 07:46:44;;;;;;;;;;;;;;;3.03;86.90;100827.86;104855;1290;59589;-78
2023/01/11 07:49:10;;;;;;;;;;;;;;;3.06;86.85;100821.96;104828;1291;61269;-79
2023/01/11 07:51:35;;;;;;;;;;;;;;;3.07;86.73;100818.39;104893;1291;58664;-79
2023/01/11 07:54:02;;;;;;;;;;;;;;;3.07;86.67;100820.27;105022;1291;61255;-79
2023/01/11 07:56:29;;;;;;;;;;;;;;;3.07;86.71;100819.24;104955;1290;72334;-79
2023/01/11 07:58:54;;;;;;;;;;;;;;;3.08;86.73;100819.44;106060;1294;59271;-80
2023/01/11 08:01:20;;;;;;;;;;;;;;;3.11;86.74;100820.84;106143;1288;59200;-80
2023/01/11 08:03:45;;;;;;;;;;;;;;;3.12;86.70;100813.52;106068;1288;59227;-79
2023/01/11 08:06:13;;;;;;;;;;;;;;;3.14;86.69;100810.98;106251;1288;59171;-80
2023/01/11 08:08:38;;;;;;;;;;;;;;;3.17;86.69;100811.73;106242;1287;59420;-80
2023/01/11 08:16:32;;;;;;;;;;;;;;;3.25;86.67;100803.86;106169;1288;74574;-77
2023/01/11 08:18:57;;;;;;;;;;;;;;;3.27;86.71;100803.05;106148;1288;59174;-81
2023/01/11 08:21:23;;;;;;;;;;;;;;;3.30;86.67;100797.64;106180;1288;59336;-80
2023/01/11 08:23:49;;;;;;;;;;;;;;;3.33;86.67;100797.35;106107;1288;59122;-81
2023/01/11 08:26:16;;;;;;;;;;;;;;;3.36;86.67;100793.98;106191;1288;59598;-80
2023/01/11 08:28:42;;;;;;;;;;;;;;;3.39;86.60;100792.34;106298;1287;59210;-80
2023/01/11 08:31:09;;;;;;;;;;;;;;;3.43;86.65;100796.82;106262;1287;59050;-80
2023/01/11 08:33:34;;;;;;;;;;;;;;;3.47;86.65;100797.58;106149;1288;59059;-80
2023/01/11 08:36:04;;;;;;;;;;;;;;;3.50;86.67;100795.06;106368;1288;58380;-80
2023/01/11 08:38:29;;;;;;;;;;;;;;;3.53;86.63;100793.41;106118;1288;74352;-80
2023/01/11 08:40:55;;;;;;;;;;;;;;;3.56;86.65;100795.33;106240;1288;59482;-80
2023/01/11 08:43:20;;;;;;;;;;;;;;;3.58;86.64;100798.27;106298;1288;59366;-81
2023/01/11 08:45:45;;;;;;;;;;;;;;;3.61;86.63;100795.58;106328;1286;59836;-80
2023/01/11 08:48:11;;;;;;;;;;;;;;;3.63;86.61;100796.12;105996;1288;59957;-80
2023/01/11 08:50:37;;;;;;;;;;;;;;;3.67;86.59;100797.17;105245;1288;69495;-80
2023/01/11 08:53:03;;;;;;;;;;;;;;;3.69;86.66;100790.73;105456;1288;59345;-80
2023/01/11 08:55:29;;;;;;;;;;;;;;;3.71;86.65;100789.22;105058;1287;61286;-80
2023/01/11 08:57:56;;;;;;;;;;;;;;;3.72;86.58;100787.19;105280;1288;59816;-80
2023/01/11 09:00:21;;;;;;;;;;;;;;;3.73;86.60;100787.71;105158;1286;59771;-75
2023/01/11 09:02:47;;;;;;;;;;;;;;;3.75;86.64;100786.04;105155;1291;61300;-80
2023/01/11 09:05:13;;;;;;;;;;;;;;;3.76;86.56;100789.98;105191;1288;61226;-75
2023/01/11 09:07:39;;;;;;;;;;;;;;;3.77;86.62;100779.42;105113;1288;61298;-76
2023/01/11 09:10:05;;;;;;;;;;;;;;;3.78;86.56;100781.98;105115;1288;62306;-80
2023/01/11 09:12:31;;;;;;;;;;;;;;;3.78;86.56;100788.81;106267;1288;68450;-80
2023/01/11 09:14:57;;;;;;;;;;;;;;;3.77;86.60;100790.84;106258;1289;59648;-76
2023/01/11 09:17:23;;;;;;;;;;;;;;;3.78;86.51;100792.58;106274;1286;58985;-76
2023/01/11 09:19:48;;;;;;;;;;;;;;;3.79;86.52;100794.80;106222;1286;59436;-76
2023/01/11 09:22:14;;;;;;;;;;;;;;;3.82;86.48;100795.69;106368;1287;59467;-76
2023/01/11 09:24:39;;;;;;;;;;;;;;;3.84;86.54;100787.70;106358;1288;59041;-80
2023/01/11 09:27:05;;;;;;;;;;;;;;;3.85;86.50;100785.52;106279;1286;59832;-80
2023/01/11 09:29:30;;;;;;;;;;;;;;;3.88;86.50;100781.80;106276;1287;59608;-81
2023/01/11 09:31:56;;;;;;;;;;;;;;;3.91;86.52;100775.70;106160;1288;59237;-79
2023/01/11 09:34:23;;;;;;;;;;;;;;;3.95;86.52;100772.85;105197;1288;61212;-80
2023/01/11 09:36:49;;;;;;;;;;;;;;;3.98;86.54;100770.00;105123;1288;61144;-80
2023/01/11 09:39:19;;;;;;;;;;;;;;;4.01;86.49;100766.27;105114;1286;61963;-80
2023/01/11 09:42:04;;;;;;;;;;;;;;;4.03;86.51;100766.30;105160;1287;59840;-79
2023/01/11 09:44:31;;;;;;;;;;;;;;;4.06;86.54;100757.14;106236;1288;74353;-79
2023/01/11 09:47:16;;;;;;;;;;;;;;;4.09;86.50;100760.75;105160;1288;68376;-79
2023/01/11 09:49:47;;;;;;;;;;;;;;;4.12;86.51;100751.59;105285;1291;72642;-78
2023/01/11 09:52:40;;;;;;;;;;;;;;;4.16;86.60;100751.95;105194;1288;61091;-76
2023/01/11 09:55:15;;;;;;;;;;;;;;;4.20;86.57;100749.60;104647;1294;61064;-77
2023/01/11 09:57:46;;;;;;;;;;;;;;;4.24;86.54;100745.39;104629;1294;74961;-76
2023/01/11 10:00:31;;;;;;;;;;;;;;;4.27;86.44;100736.04;104582;1295;69837;-76
2023/01/11 10:03:17;;;;;;;;;;;;;;;4.33;86.49;100731.50;104339;1294;72531;-77
2023/01/11 10:06:01;;;;;;;;;;;;;;;4.38;86.47;100728.31;104118;1303;61345;-78
2023/01/11 10:08:45;;;;;;;;;;;;;;;4.41;86.43;100726.47;104071;1300;61169;-80
2023/01/11 10:11:31;;;;;;;;;;;;;;;4.45;86.36;100720.20;104138;1300;74376;-77
2023/01/11 10:14:14;;;;;;;;;;;;;;;4.49;86.43;100708.30;103686;1306;69410;-77
2023/01/11 10:16:55;;;;;;;;;;;;;;;4.53;86.36;100701.52;103539;1309;72591;-76
2023/01/11 10:19:47;;;;;;;;;;;;;;;4.58;86.42;100699.52;103708;1307;61402;-76
2023/01/11 10:22:19;;;;;;;;;;;;;;;4.62;86.38;100692.55;103689;1308;61137;-77
2023/01/11 10:24:51;;;;;;;;;;;;;;;4.65;86.31;100690.88;103702;1311;75620;-77
2023/01/11 10:27:21;;;;;;;;;;;;;;;4.70;86.38;100685.77;103575;1311;68764;-75
2023/01/11 10:36:07;;;;;;;;;;;;;;;;;;;;;
2023/01/11 10:38:48;;;;;;;;;;;;;;;4.87;86.21;100676.86;103507;1307;74542;-76
2023/01/11 10:41:24;;;;;;;;;;;;;;;4.91;86.18;100675.52;103582;1309;69066;-76
2023/01/11 10:44:10;;;;;;;;;;;;;;;4.93;86.11;100674.17;103913;1302;73868;-76
2023/01/11 10:46:38;;;;;;;;;;;;;;;4.95;86.09;100676.41;103938;1303;61154;-76
2023/01/11 10:49:24;;;;;;;;;;;;;;;4.96;86.04;100675.06;104079;1302;62375;-74
2023/01/11 10:51:52;;;;;;;;;;;;;;;4.99;86.07;100673.36;104348;1297;75508;-74
2023/01/11 10:54:26;;;;;;;;;;;;;;;5.03;86.07;100674.42;104503;1296;68120;-74
2023/01/11 10:56:54;;;;;;;;;;;;;;;5.05;86.07;100664.19;104429;1297;73471;-76
2023/01/11 10:59:38;;;;;;;;;;;;;;;5.06;86.07;100659.92;104465;1299;59494;-76
2023/01/11 11:02:32;;;;;;;;;;;;;;;5.09;86.04;100655.34;104493;1296;61233;-76
2023/01/11 11:05:06;;;;;;;;;;;;;;;5.10;86.00;100651.08;104391;1297;75630;-76
2023/01/11 11:07:52;;;;;;;;;;;;;;;5.12;86.02;100647.84;104513;1299;69335;-76
2023/01/11 11:10:24;;;;;;;;;;;;;;;5.13;85.96;100642.73;104370;1294;73496;-76
2023/01/11 11:12:59;;;;;;;;;;;;;;;5.15;85.96;100637.44;104599;1293;61397;-76
2023/01/11 11:15:30;;;;;;;;;;;;;;;5.17;85.87;100636.94;104611;1294;59946;-78
2023/01/11 11:17:55;;;;;;;;;;;;;;;5.19;85.87;100631.65;104645;1294;75001;-78
2023/01/11 11:20:27;;;;;;;;;;;;;;;5.20;85.89;100628.39;104613;1297;59964;-79
2023/01/11 11:22:55;;;;;;;;;;;;;;;5.21;85.85;100624.45;104607;1294;71327;-76
2023/01/11 11:25:26;;;;;;;;;;;;;;;5.23;85.74;100621.22;104593;1294;59722;-76
2023/01/11 11:27:57;;;;;;;;;;;;;;;5.23;85.70;100621.39;104586;1295;59782;-76
2023/01/11 11:30:48;;;;;;;;;;;;;;;5.24;85.78;100615.23;105661;1297;75304;-76
2023/01/11 11:33:24;;;;;;;;;;;;;;;5.25;85.72;100610.64;105707;1293;69184;-77
2023/01/11 11:36:25;;;;;;;;;;;;;;;5.27;85.77;100607.41;104658;1293;72430;-76
2023/01/11 11:39:09;;;;;;;;;;;;;;;5.28;85.59;100599.20;97033;1298;10002318;-76
2023/01/11 11:41:45;;;;;;;;;;;;;;;5.30;85.51;100598.19;104197;1297;74351;-76
2023/01/11 11:44:16;;;;;;;;;;;;;;;5.31;85.55;100595.29;104348;1299;69785;-76
2023/01/11 11:46:54;;;;;;;;;;;;;;;5.32;85.53;100588.45;104309;1298;72458;-76
2023/01/11 11:49:20;;;;;;;;;;;;;;;5.32;85.59;100585.38;104664;1293;61181;-77
2023/01/11 11:51:46;;;;;;;;;;;;;;;5.35;85.55;100575.14;104702;1293;59752;-77
2023/01/11 11:54:20;;;;;;;;;;;;;;;5.36;85.55;100571.55;104767;1293;61549;-77
2023/01/11 11:56:46;;;;;;;;;;;;;;;5.39;85.58;100565.23;104788;1295;68398;-77
2023/01/11 11:59:14;;;;;;;;;;;;;;;5.40;85.52;100559.95;105661;1291;59360;-77
2023/01/11 12:01:45;;;;;;;;;;;;;;;5.42;85.61;100552.77;105828;1293;59697;-77
2023/01/11 12:04:13;;;;;;;;;;;;;;;5.43;85.47;100546.63;105906;1293;59705;-78
2023/01/11 12:06:39;;;;;;;;;;;;;;;5.44;85.45;100538.59;105730;1293;74867;-78
2023/01/11 12:09:09;;;;;;;;;;;;;;;5.45;85.50;100536.55;105683;1291;59041;-77
2023/01/11 12:11:37;;;;;;;;;;;;;;;5.47;85.43;100531.60;105812;1293;72439;-78
2023/01/11 12:14:29;;;;;;;;;;;;;;;5.49;85.44;100532.29;106113;1288;59680;-77
2023/01/11 12:16:56;;;;;;;;;;;;;;;5.51;85.37;100537.77;105716;1294;59992;-77
2023/01/11 12:19:38;;;;;;;;;;;;;;;5.53;85.42;100535.89;105731;1294;73342;-76
2023/01/11 12:22:11;;;;;;;;;;;;;;;5.56;85.35;100531.29;105682;1295;70221;-77
2023/01/11 12:24:36;;;;;;;;;;;;;;;5.57;85.34;100533.85;105772;1293;73264;-77
2023/01/11 12:27:02;;;;;;;;;;;;;;;5.58;85.35;100532.15;105760;1293;60072;-78
2023/01/11 12:29:34;;;;;;;;;;;;;;;5.60;85.30;100534.55;105793;1294;59044;-78
2023/01/11 12:31:59;;;;;;;;;;;;;;;5.62;85.20;100527.38;105780;1297;74161;-78
2023/01/11 12:34:45;;;;;;;;;;;;;;;5.63;85.31;100523.79;105827;1294;59271;-78
2023/01/11 12:37:36;;;;;;;;;;;;;;;5.66;85.26;100521.74;105222;1299;72395;-78
2023/01/11 12:40:12;;;;;;;;;;;;;;;5.69;85.19;100517.64;104659;1306;59753;-78
2023/01/11 12:42:51;;;;;;;;;;;;;;;5.70;85.19;100512.85;104583;1309;60699;-78
2023/01/11 12:45:48;;;;;;;;;;;;;;;5.71;85.14;100511.84;104545;1308;73123;-77
2023/01/11 12:48:34;;;;;;;;;;;;;;;5.73;85.24;100508.39;99898;1317;5193491;-76
2023/01/11 12:51:08;;;;;;;;;;;;;;;5.76;85.26;100506.52;103313;1320;72679;-78
2023/01/11 12:53:54;;;;;;;;;;;;;;;5.78;85.15;100497.45;103455;1315;59433;-77
2023/01/11 12:56:42;;;;;;;;;;;;;;;5.80;85.24;100495.06;103639;1316;59820;-78
2023/01/11 12:59:14;;;;;;;;;;;;;;;5.80;85.11;100491.46;103216;1325;74793;-77
2023/01/11 13:01:57;;;;;;;;;;;;;;;5.81;85.03;100488.05;103026;1322;70272;-77
2023/01/11 13:04:34;;;;;;;;;;;;;;;5.83;85.10;100481.03;102130;1321;72622;-77
2023/01/11 13:07:21;;;;;;;;;;;;;;;5.84;85.16;100472.83;103216;1322;59221;-76
2023/01/11 13:10:18;;;;;;;;;;;;;;;5.86;85.14;100475.05;102866;1323;60452;-77
2023/01/11 13:12:47;;;;;;;;;;;;;;;5.88;85.10;100474.20;101898;1323;74666;-77
2023/01/11 13:15:21;;;;;;;;;;;;;;;5.89;85.11;100474.39;102561;1317;70179;-76
2023/01/11 13:17:51;;;;;;;;;;;;;;;5.90;85.18;100472.86;102953;1309;73399;-76
2023/01/11 13:20:37;;;;;;;;;;;;;;;5.91;85.15;100469.79;103515;1309;60875;-76
2023/01/11 13:23:15;;;;;;;;;;;;;;;5.91;85.19;100471.84;102830;1314;61145;-76
2023/01/11 13:25:43;;;;;;;;;;;;;;;5.92;85.08;100472.18;103621;1306;74259;-77